createdAt,value
2022-09-28T00:01:25.853Z,3.30
2022-09-28T00:03:59.621Z,4.18
2022-09-28T00:06:32.165Z,3.83
2022-09-28T00:09:05.102Z,3.78
2022-09-28T00:11:37.770Z,3.78
2022-09-28T00:14:11.362Z,4.13
2022-09-28T00:16:44.618Z,4.18
2022-09-28T00:19:17.749Z,3.58
2022-09-28T00:21:50.468Z,3.90
2022-09-28T00:24:27.345Z,3.65
2022-09-28T00:27:01.833Z,3.67
2022-09-28T00:29:37.109Z,3.83
2022-09-28T00:32:13.760Z,3.95
2022-09-28T00:34:46.251Z,4.05
2022-09-28T00:37:20.101Z,4.30
2022-09-28T00:39:53.017Z,4.00
2022-09-28T00:42:26.818Z,4.55
2022-09-28T00:45:00.121Z,4.18
2022-09-28T00:47:59.058Z,4.40
2022-09-28T00:50:37.451Z,4.68
2022-09-28T00:53:32.734Z,4.28
2022-09-28T00:56:13.452Z,4.13
2022-09-28T00:58:51.675Z,4.25
2022-09-28T01:01:24.463Z,4.72
2022-09-28T01:03:59.466Z,4.13
2022-09-28T01:06:35.962Z,4.07
2022-09-28T01:09:10.617Z,5.07
2022-09-28T01:11:43.250Z,4.40
2022-09-28T01:14:18.022Z,4.53
2022-09-28T01:17:06.948Z,5.20
2022-09-28T01:20:39.690Z,4.80
2022-09-28T01:23:58.625Z,4.88
2022-09-28T01:27:11.538Z,4.57
2022-09-28T01:29:51.540Z,4.82
2022-09-28T01:32:42.581Z,5.05
2022-09-28T01:35:25.240Z,4.68
2022-09-28T01:43:27.142Z,5.50
2022-09-28T01:46:13.705Z,5.13
2022-09-28T01:48:57.201Z,5.63
2022-09-28T01:51:41.124Z,6.15
2022-09-28T01:54:21.030Z,5.93
2022-09-28T01:57:14.369Z,6.55
2022-09-28T02:00:13.815Z,6.00
2022-09-28T02:02:59.482Z,6.45
2022-09-28T02:05:40.037Z,6.85
2022-09-28T02:08:33.652Z,6.03
2022-09-28T02:11:19.407Z,5.90
2022-09-28T02:14:04.246Z,5.57
2022-09-28T02:16:43.472Z,5.78
2022-09-28T02:19:21.232Z,6.00
2022-09-28T02:21:59.514Z,5.32
2022-09-28T02:24:59.445Z,5.32
2022-09-28T02:27:39.434Z,5.28
2022-09-28T02:30:12.582Z,4.72
2022-09-28T02:32:53.587Z,5.15
2022-09-28T02:35:26.313Z,5.10
2022-09-28T02:37:58.866Z,4.60
2022-09-28T02:40:35.269Z,3.97
2022-09-28T02:43:39.305Z,4.70
2022-09-28T02:46:35.678Z,4.40
2022-09-28T02:49:22.231Z,4.20
2022-09-28T02:52:19.900Z,3.78
2022-09-28T02:55:06.967Z,4.15
2022-09-28T02:58:18.236Z,4.00
2022-09-28T03:01:32.212Z,3.38
2022-09-28T03:04:07.834Z,3.92
2022-09-28T03:06:53.563Z,3.70
2022-09-28T03:09:58.141Z,3.60
2022-09-28T03:12:31.546Z,3.03
2022-09-28T03:15:26.390Z,3.13
2022-09-28T03:17:59.134Z,3.33
2022-09-28T03:20:33.544Z,2.92
2022-09-28T03:23:23.877Z,2.80
2022-09-28T03:25:57.170Z,3.35
2022-09-28T03:28:30.190Z,2.65
2022-09-28T03:31:02.897Z,2.92
2022-09-28T03:33:35.762Z,1.98
2022-09-28T03:36:09.567Z,2.85
2022-09-28T03:38:42.279Z,2.80
2022-09-28T03:41:14.902Z,2.42
2022-09-28T03:43:47.767Z,2.58
2022-09-28T03:46:20.448Z,2.22
2022-09-28T03:48:53.104Z,2.28
2022-09-28T03:51:26.316Z,2.63
2022-09-28T03:53:58.920Z,2.40
2022-09-28T03:56:31.497Z,2.35
2022-09-28T03:59:05.176Z,2.00
2022-09-28T04:01:37.885Z,2.80
2022-09-28T04:04:14.192Z,2.20
2022-09-28T04:09:19.178Z,1.85
2022-09-28T04:12:03.277Z,2.45
2022-09-28T04:14:36.303Z,2.10
2022-09-28T04:17:08.881Z,2.10
2022-09-28T04:19:41.529Z,1.88
2022-09-28T04:22:14.284Z,1.48
2022-09-28T04:24:47.038Z,1.73
2022-09-28T04:27:38.322Z,1.50
2022-09-28T04:30:11.643Z,1.20
2022-09-28T04:32:47.590Z,1.50
2022-09-28T04:35:20.251Z,1.10
2022-09-28T04:37:52.836Z,1.50
2022-09-28T04:40:25.406Z,1.08
2022-09-28T04:42:58.017Z,1.40
2022-09-28T04:45:30.756Z,1.42
2022-09-28T04:48:07.816Z,1.65
2022-09-28T04:50:40.364Z,1.17
2022-09-28T04:53:12.921Z,1.25
2022-09-28T04:55:45.644Z,1.42
2022-09-28T04:58:18.654Z,1.50
2022-09-28T05:00:51.447Z,1.75
2022-09-28T05:03:24.135Z,1.70
2022-09-28T05:05:56.977Z,1.52
2022-09-28T05:08:29.708Z,1.80
2022-09-28T05:11:07.907Z,2.00
2022-09-28T05:13:45.953Z,1.80
2022-09-28T05:16:20.301Z,1.77
2022-09-28T05:18:57.059Z,1.50
2022-09-28T05:21:30.837Z,1.63
2022-09-28T05:24:07.356Z,1.60
2022-09-28T05:26:39.991Z,1.75
2022-09-28T05:29:12.742Z,1.92
2022-09-28T05:31:45.417Z,1.92
2022-09-28T05:34:18.120Z,2.15
2022-09-28T05:36:50.996Z,2.45
2022-09-28T05:39:23.648Z,2.13
2022-09-28T05:41:57.923Z,2.60
2022-09-28T05:44:30.558Z,2.17
2022-09-28T05:47:03.291Z,2.40
2022-09-28T05:49:35.878Z,2.22
2022-09-28T05:52:08.446Z,2.38
2022-09-28T05:54:41.256Z,2.60
2022-09-28T05:57:15.293Z,3.15
2022-09-28T05:59:47.852Z,3.15
2022-09-28T06:02:20.551Z,2.50
2022-09-28T06:04:53.941Z,2.60
2022-09-28T06:07:26.712Z,3.40
2022-09-28T06:10:00.076Z,2.92
2022-09-28T06:12:34.284Z,3.65
2022-09-28T06:15:07.871Z,3.70
2022-09-28T06:17:40.620Z,3.08
2022-09-28T06:20:13.677Z,3.20
2022-09-28T06:22:46.225Z,3.80
2022-09-28T06:25:18.997Z,4.57
2022-09-28T06:28:11.825Z,4.00
2022-09-28T06:30:45.065Z,4.30
2022-09-28T06:33:17.818Z,4.32
2022-09-28T06:35:52.135Z,4.28
2022-09-28T06:38:24.709Z,4.38
2022-09-28T06:40:57.938Z,3.92
2022-09-28T06:43:34.283Z,5.30
2022-09-28T06:46:10.523Z,4.45
2022-09-28T06:48:44.972Z,4.53
2022-09-28T06:51:17.560Z,4.50
2022-09-28T06:53:53.838Z,4.55
2022-09-28T06:56:30.624Z,4.43
2022-09-28T06:59:05.275Z,4.07
2022-09-28T07:01:37.973Z,4.25
2022-09-28T07:04:10.674Z,4.47
2022-09-28T07:06:48.025Z,4.57
2022-09-28T07:09:31.419Z,4.30
2022-09-28T07:12:06.180Z,4.65
2022-09-28T07:14:47.775Z,4.18
2022-09-28T07:17:20.938Z,4.85
2022-09-28T07:19:53.616Z,3.47
2022-09-28T07:22:39.588Z,4.07
2022-09-28T07:25:14.382Z,3.90
2022-09-28T07:27:47.155Z,3.42
2022-09-28T07:30:20.165Z,3.28
2022-09-28T07:32:54.528Z,3.00
2022-09-28T07:35:28.063Z,3.20
2022-09-28T07:38:08.324Z,3.28
2022-09-28T07:40:59.621Z,3.10
2022-09-28T07:43:32.856Z,3.60
2022-09-28T07:46:12.115Z,2.65
2022-09-28T07:48:45.754Z,3.15
2022-09-28T07:51:21.436Z,3.05
2022-09-28T07:53:56.723Z,3.03
2022-09-28T07:56:29.493Z,3.38
2022-09-28T07:59:01.986Z,3.10
2022-09-28T08:01:34.523Z,3.08
2022-09-28T08:04:07.075Z,3.33
2022-09-28T08:06:40.384Z,3.53
2022-09-28T08:09:12.859Z,2.85
2022-09-28T08:11:45.429Z,3.50
2022-09-28T08:14:19.458Z,3.42
2022-09-28T08:16:53.383Z,3.30
2022-09-28T08:19:26.072Z,3.10
2022-09-28T08:21:58.618Z,3.60
2022-09-28T08:24:32.229Z,3.22
2022-09-28T08:27:04.798Z,3.08
2022-09-28T08:29:37.553Z,3.42
2022-09-28T08:32:11.002Z,3.00
2022-09-28T08:34:43.995Z,3.20
2022-09-28T08:37:16.605Z,3.13
2022-09-28T08:39:49.237Z,2.70
2022-09-28T08:42:35.495Z,3.15
2022-09-28T08:45:15.345Z,2.42
2022-09-28T08:48:28.572Z,3.10
2022-09-28T08:51:13.768Z,3.42
2022-09-28T08:54:08.212Z,3.15
2022-09-28T08:57:03.029Z,3.20
2022-09-28T08:59:59.832Z,2.50
2022-09-28T09:02:36.665Z,2.90
2022-09-28T09:05:19.069Z,2.97
2022-09-28T09:08:35.012Z,2.47
2022-09-28T09:11:10.495Z,3.38
2022-09-28T09:14:20.904Z,2.70
2022-09-28T09:17:41.160Z,3.05
2022-09-28T09:20:25.060Z,2.92
2022-09-28T09:23:13.859Z,2.45
2022-09-28T09:25:56.281Z,2.60
2022-09-28T09:29:04.834Z,2.40
2022-09-28T09:31:50.109Z,2.75
2022-09-28T09:35:08.973Z,2.80
2022-09-28T09:38:07.766Z,3.00
2022-09-28T09:41:01.691Z,2.22
2022-09-28T09:44:19.850Z,3.10
2022-09-28T09:47:11.421Z,1.83
2022-09-28T09:49:56.018Z,2.20
2022-09-28T09:52:57.620Z,2.20
2022-09-28T09:55:45.443Z,2.40
2022-09-28T09:58:29.078Z,2.33
2022-09-28T10:01:12.301Z,2.60
2022-09-28T10:03:48.666Z,2.17
2022-09-28T10:06:31.485Z,2.00
2022-09-28T10:09:20.675Z,2.65
2022-09-28T10:11:54.049Z,2.10
2022-09-28T10:14:26.856Z,2.38
2022-09-28T10:17:03.845Z,2.15
2022-09-28T10:19:37.422Z,2.35
2022-09-28T10:22:23.993Z,2.22
2022-09-28T10:24:58.329Z,2.22
2022-09-28T10:27:35.395Z,2.10
2022-09-28T10:30:08.462Z,1.90
2022-09-28T10:32:47.075Z,2.25
2022-09-28T10:35:19.554Z,1.75
2022-09-28T10:38:01.719Z,2.13
2022-09-28T10:40:50.318Z,2.40
2022-09-28T10:46:15.139Z,2.80
2022-09-28T10:49:11.839Z,2.13
2022-09-28T10:51:49.673Z,1.90
2022-09-28T10:54:28.797Z,1.65
2022-09-28T10:57:01.324Z,1.30
2022-09-28T10:59:41.786Z,1.42
2022-09-28T11:02:37.742Z,1.60
2022-09-28T11:05:23.997Z,2.22
2022-09-28T11:08:00.635Z,2.20
2022-09-28T11:10:34.742Z,2.28
2022-09-28T11:13:10.180Z,1.70
2022-09-28T11:15:44.275Z,1.65
2022-09-28T11:18:31.324Z,1.23
2022-09-28T11:21:21.493Z,0.85
2022-09-28T11:24:19.808Z,0.95
2022-09-28T11:26:59.113Z,1.77
2022-09-28T11:29:44.130Z,1.20
2022-09-28T11:32:17.109Z,1.00
2022-09-28T11:34:59.598Z,1.20
2022-09-28T11:38:20.052Z,1.50
2022-09-28T11:41:27.813Z,1.50
2022-09-28T11:44:13.728Z,1.42
2022-09-28T11:47:30.248Z,1.40
2022-09-28T11:50:29.165Z,1.45
2022-09-28T11:53:27.309Z,1.70
2022-09-28T11:56:15.508Z,1.67
2022-09-28T11:58:58.006Z,1.58
2022-09-28T12:01:57.661Z,1.40
2022-09-28T12:04:44.044Z,1.63
2022-09-28T12:07:39.051Z,1.48
2022-09-28T12:11:12.365Z,1.70
2022-09-28T12:13:51.478Z,1.30
2022-09-28T12:19:42.466Z,1.40
2022-09-28T12:22:30.351Z,1.10
2022-09-28T12:25:10.183Z,0.77
2022-09-28T12:27:56.001Z,0.88
2022-09-28T12:30:37.372Z,0.95
2022-09-28T12:33:17.928Z,1.00
2022-09-28T12:36:41.459Z,0.95
2022-09-28T12:40:15.035Z,1.15
2022-09-28T12:43:17.527Z,1.30
2022-09-28T12:46:18.295Z,1.00
2022-09-28T12:52:27.596Z,0.60
2022-09-28T12:55:29.505Z,0.77
2022-09-28T12:58:28.514Z,0.60
2022-09-28T13:01:45.087Z,0.70
2022-09-28T13:04:54.976Z,0.55
2022-09-28T13:07:44.438Z,0.40
2022-09-28T13:10:40.565Z,0.40
2022-09-28T13:13:39.796Z,0.47
2022-09-28T13:16:35.994Z,0.50
2022-09-28T13:19:24.073Z,0.73
2022-09-28T13:22:22.866Z,0.75
2022-09-28T13:25:02.672Z,1.00
2022-09-28T13:27:45.373Z,0.50
2022-09-28T13:30:19.285Z,0.68
2022-09-28T13:32:56.462Z,0.43
2022-09-28T13:35:29.983Z,0.73
2022-09-28T13:38:17.589Z,0.70
2022-09-28T13:41:05.043Z,0.60
2022-09-28T13:44:12.229Z,0.63
2022-09-28T13:47:48.253Z,0.50
2022-09-28T13:51:09.468Z,0.70
2022-09-28T13:57:41.712Z,0.40
2022-09-28T14:00:51.293Z,0.20
2022-09-28T14:04:01.369Z,0.30
2022-09-28T14:06:33.909Z,0.40
2022-09-28T14:09:12.383Z,0.40
2022-09-28T14:11:56.841Z,0.35
2022-09-28T14:14:50.743Z,0.43
2022-09-28T14:17:25.875Z,0.47
2022-09-28T14:20:12.898Z,0.43
2022-09-28T14:23:00.772Z,0.40
2022-09-28T14:25:45.598Z,0.40
2022-09-28T14:28:33.933Z,0.45
2022-09-28T14:31:24.007Z,0.60
2022-09-28T14:34:03.323Z,0.60
2022-09-28T14:37:07.509Z,0.90
2022-09-28T14:40:04.434Z,0.45
2022-09-28T14:42:37.082Z,0.40
2022-09-28T14:45:12.471Z,1.05
2022-09-28T14:48:21.732Z,0.30
2022-09-28T14:50:55.733Z,0.40
2022-09-28T14:53:28.797Z,0.30
2022-09-28T14:56:09.017Z,0.30
2022-09-28T14:58:42.282Z,0.40
2022-09-28T15:01:24.901Z,0.20
2022-09-28T15:04:06.775Z,0.20
2022-09-28T15:06:49.101Z,0.30
2022-09-28T15:09:37.332Z,0.50
2022-09-28T15:12:28.931Z,0.30
2022-09-28T15:15:18.547Z,0.30
2022-09-28T15:18:09.125Z,0.20
2022-09-28T15:20:46.720Z,0.20
2022-09-28T15:23:27.584Z,0.30
2022-09-28T15:26:00.911Z,0.45
2022-09-28T15:28:36.606Z,0.20
2022-09-28T15:31:22.742Z,0.40
2022-09-28T15:34:13.868Z,0.30
2022-09-28T15:36:46.976Z,0.22
2022-09-28T15:39:32.190Z,0.15
2022-09-28T15:42:06.349Z,0.35
2022-09-28T15:44:42.977Z,0.30
2022-09-28T15:47:26.010Z,0.43
2022-09-28T15:50:22.881Z,0.20
2022-09-28T15:53:05.542Z,0.20
2022-09-28T15:55:44.754Z,0.30
2022-09-28T15:58:20.169Z,0.30
2022-09-28T16:01:36.075Z,0.47
2022-09-28T16:04:50.312Z,0.30
2022-09-28T16:07:38.179Z,0.40
2022-09-28T16:10:13.773Z,0.43
2022-09-28T16:13:00.048Z,0.30
2022-09-28T16:15:37.703Z,0.30
2022-09-28T16:18:20.691Z,0.63
2022-09-28T16:20:59.016Z,0.30
2022-09-28T16:23:34.450Z,0.68
2022-09-28T16:26:31.903Z,0.40
2022-09-28T16:29:25.542Z,0.47
2022-09-28T16:32:26.954Z,0.40
2022-09-28T16:35:27.457Z,0.60
2022-09-28T16:38:16.074Z,0.40
2022-09-28T16:40:53.815Z,0.57
2022-09-28T16:43:32.573Z,0.73
2022-09-28T16:46:13.316Z,0.80
2022-09-28T16:48:49.578Z,0.82
2022-09-28T16:51:23.607Z,0.43
2022-09-28T16:54:25.238Z,0.65
2022-09-28T16:56:58.181Z,0.80
2022-09-28T16:59:31.188Z,0.40
2022-09-28T17:05:13.406Z,0.70
2022-09-28T17:07:49.878Z,0.60
2022-09-28T17:11:13.006Z,0.98
2022-09-28T17:13:45.206Z,0.70
2022-09-28T17:16:42.648Z,1.00
2022-09-28T17:19:23.697Z,1.85
2022-09-28T17:21:56.184Z,1.20
2022-09-28T17:24:28.642Z,1.00
2022-09-28T17:27:02.126Z,0.82
2022-09-28T17:29:34.694Z,1.15
2022-09-28T17:32:18.760Z,0.90
2022-09-28T17:35:00.688Z,1.38
2022-09-28T17:40:22.025Z,1.50
2022-09-28T17:42:59.636Z,1.10
2022-09-28T17:45:41.298Z,1.00
2022-09-28T17:48:18.947Z,0.90
2022-09-28T17:50:51.475Z,0.90
2022-09-28T17:53:24.057Z,0.88
2022-09-28T17:55:56.557Z,0.90
2022-09-28T17:58:29.147Z,0.88
2022-09-28T18:01:02.055Z,0.75
2022-09-28T18:03:34.594Z,0.90
2022-09-28T18:06:15.057Z,1.33
2022-09-28T18:08:47.775Z,1.45
2022-09-28T18:11:21.220Z,1.20
2022-09-28T18:13:53.929Z,2.00
2022-09-28T18:16:28.750Z,2.25
2022-09-28T18:19:01.769Z,2.65
2022-09-28T18:21:34.552Z,1.75
2022-09-28T18:24:07.081Z,1.70
2022-09-28T18:26:39.618Z,1.83
2022-09-28T18:29:12.146Z,2.05
2022-09-28T18:31:44.688Z,2.30
2022-09-28T18:34:17.256Z,2.95
2022-09-28T18:36:49.850Z,3.30
2022-09-28T18:39:23.761Z,3.10
2022-09-28T18:41:56.889Z,3.35
2022-09-28T18:44:29.562Z,2.75
2022-09-28T18:47:02.405Z,3.17
2022-09-28T18:49:35.522Z,2.60
2022-09-28T18:52:08.396Z,2.95
2022-09-28T18:54:41.607Z,2.60
2022-09-28T18:57:15.170Z,2.03
2022-09-28T18:59:48.012Z,2.10
2022-09-28T19:02:20.791Z,2.03
2022-09-28T19:04:53.767Z,1.67
2022-09-28T19:07:27.155Z,1.50
2022-09-28T19:10:00.058Z,3.05
2022-09-28T19:12:33.224Z,2.70
2022-09-28T19:15:06.731Z,2.00
2022-09-28T19:17:39.619Z,3.05
2022-09-28T19:20:12.225Z,3.03
2022-09-28T19:22:45.139Z,5.85
2022-09-28T19:25:18.263Z,7.45
2022-09-28T19:27:50.951Z,5.63
2022-09-28T19:30:23.715Z,2.70
2022-09-28T19:32:56.273Z,1.83
2022-09-28T19:35:29.507Z,1.38
2022-09-28T19:38:02.147Z,1.23
2022-09-28T19:40:37.423Z,1.33
2022-09-28T19:43:10.069Z,1.65
2022-09-28T19:45:43.008Z,2.17
2022-09-28T19:48:15.577Z,1.73
2022-09-28T19:51:03.621Z,1.65
2022-09-28T19:53:36.792Z,1.90
2022-09-28T19:56:10.252Z,1.50
2022-09-28T19:58:42.837Z,1.50
2022-09-28T20:01:15.928Z,1.70
2022-09-28T20:03:48.636Z,1.52
2022-09-28T20:06:23.212Z,1.52
2022-09-28T20:08:58.132Z,1.58
2022-09-28T20:11:31.493Z,1.90
2022-09-28T20:14:09.805Z,1.73
2022-09-28T20:16:42.534Z,2.17
2022-09-28T20:19:15.836Z,2.25
2022-09-28T20:21:49.431Z,2.03
2022-09-28T20:24:26.486Z,2.35
2022-09-28T20:26:59.576Z,2.00
2022-09-28T20:29:33.530Z,2.53
2022-09-28T20:32:09.066Z,2.63
2022-09-28T20:34:41.555Z,3.20
2022-09-28T20:37:17.237Z,4.03
2022-09-28T20:39:50.175Z,4.05
2022-09-28T20:42:22.803Z,4.35
2022-09-28T20:44:55.397Z,5.00
2022-09-28T20:47:28.441Z,4.45
2022-09-28T20:50:01.414Z,5.63
2022-09-28T20:52:34.372Z,5.32
2022-09-28T20:55:08.030Z,4.80
2022-09-28T20:57:40.643Z,4.38
2022-09-28T21:00:13.927Z,4.30
2022-09-28T21:02:52.291Z,3.90
2022-09-28T21:05:24.928Z,4.00
2022-09-28T21:07:58.593Z,3.78
2022-09-28T21:10:31.909Z,3.10
2022-09-28T21:13:04.420Z,2.78
2022-09-28T21:15:37.203Z,2.67
2022-09-28T21:18:09.794Z,2.63
2022-09-28T21:20:48.708Z,2.28
2022-09-28T21:23:24.914Z,2.70
2022-09-28T21:26:10.603Z,2.85
2022-09-28T21:28:44.769Z,2.30
2022-09-28T21:31:17.598Z,2.95
2022-09-28T21:33:50.801Z,2.45
2022-09-28T21:36:24.462Z,3.00
2022-09-28T21:38:57.671Z,2.53
2022-09-28T21:41:30.634Z,2.10
2022-09-28T21:44:03.464Z,2.72
2022-09-28T21:46:38.537Z,2.33
2022-09-28T21:49:12.573Z,3.10
2022-09-28T21:51:47.120Z,3.47
2022-09-28T21:54:20.702Z,3.35
2022-09-28T21:56:53.803Z,2.80
2022-09-28T21:59:26.486Z,3.40
2022-09-28T22:01:59.125Z,3.42
2022-09-28T22:04:32.288Z,3.35
2022-09-28T22:07:05.017Z,3.85
2022-09-28T22:09:37.654Z,3.75
2022-09-28T22:12:10.776Z,4.05
2022-09-28T22:14:43.560Z,3.30
2022-09-28T22:17:16.224Z,3.65
2022-09-28T22:19:48.924Z,4.00
2022-09-28T22:22:21.673Z,3.50
2022-09-28T22:24:54.994Z,3.30
2022-09-28T22:27:31.647Z,3.75
2022-09-28T22:30:04.903Z,3.47
2022-09-28T22:32:37.659Z,3.80
2022-09-28T22:35:10.323Z,3.88
2022-09-28T22:37:42.992Z,3.95
2022-09-28T22:40:15.811Z,4.05
2022-09-28T22:42:49.014Z,4.18
2022-09-28T22:45:23.063Z,4.50
2022-09-28T22:47:55.683Z,4.90
2022-09-28T22:50:28.443Z,4.47
2022-09-28T22:53:02.033Z,4.75
2022-09-28T22:55:34.661Z,5.40
2022-09-28T22:58:07.798Z,4.90
2022-09-28T23:00:40.759Z,5.60
2022-09-28T23:03:13.485Z,4.28
2022-09-28T23:05:56.694Z,4.72
2022-09-28T23:08:29.279Z,4.18
2022-09-28T23:11:02.974Z,5.47
2022-09-28T23:13:35.594Z,5.25
2022-09-28T23:16:11.967Z,5.50
2022-09-28T23:18:44.687Z,4.85
2022-09-28T23:21:22.424Z,5.40
2022-09-28T23:24:00.865Z,5.78
2022-09-28T23:26:36.903Z,5.80
2022-09-28T23:29:11.708Z,5.80
2022-09-28T23:31:44.846Z,5.03
2022-09-28T23:34:17.760Z,5.50
2022-09-28T23:36:52.810Z,5.50
2022-09-28T23:39:25.353Z,5.82
2022-09-28T23:41:58.961Z,4.97
2022-09-28T23:44:32.670Z,5.30
2022-09-28T23:47:05.512Z,5.50
2022-09-28T23:49:38.090Z,5.15
2022-09-28T23:52:10.683Z,5.97
2022-09-28T23:54:43.259Z,5.30
2022-09-28T23:57:15.995Z,5.15
2022-09-28T23:59:48.680Z,4.95
